Time;durP1;ratioP1;P1;durP2;ratioP2;P2;SDS_P1;SDS_P2;PMS_P1;PMS_P2;Temp;Humidity;BMP_temperature;BMP_pressure;BME280_temperature;BME280_humidity;BME280_pressure;Samples;Min_cycle;Max_cycle;Signal;HPM_P1;HPM_P2
2022/01/19 00:00:08;;;;;;;6.23;5.63;;;;;;;0.80;100.00;98681.66;5023089;28;20204;-58
2022/01/19 00:02:37;;;;;;;9.17;6.57;;;;;;;0.98;100.00;98673.75;5022451;28;20211;-60
2022/01/19 00:05:06;;;;;;;9.73;6.37;;;;;;;0.98;100.00;98665.91;5022599;28;20589;-57
2022/01/19 00:07:34;;;;;;;7.63;6.13;;;;;;;0.91;100.00;98659.34;5021692;28;20631;-57
2022/01/19 00:10:08;;;;;;;7.00;5.47;;;;;;;0.78;100.00;98638.34;5023574;28;20196;-58
2022/01/19 00:12:37;;;;;;;6.60;5.90;;;;;;;0.79;100.00;98640.00;5020742;28;20208;-57
2022/01/19 00:15:08;;;;;;;7.73;4.83;;;;;;;0.88;100.00;98633.41;5021232;28;20753;-60
2022/01/19 00:17:35;;;;;;;5.50;4.83;;;;;;;0.91;100.00;98633.25;5022550;28;20565;-60
2022/01/19 00:20:05;;;;;;;5.37;4.97;;;;;;;1.00;100.00;98630.13;5019444;28;20192;-57
2022/01/19 00:22:33;;;;;;;5.87;5.37;;;;;;;1.03;100.00;98631.69;5017076;28;20193;-59
2022/01/19 00:25:01;;;;;;;6.90;5.73;;;;;;;1.05;100.00;98633.31;5021157;28;20235;-57
2022/01/19 00:27:30;;;;;;;5.37;4.93;;;;;;;0.96;100.00;98621.63;5015489;28;20632;-59
2022/01/19 00:29:58;;;;;;;5.00;4.50;;;;;;;0.99;100.00;98615.41;5018057;28;20197;-60
2022/01/19 00:32:27;;;;;;;5.60;4.70;;;;;;;1.10;100.00;98623.44;5023483;28;20246;-61
2022/01/19 00:34:55;;;;;;;5.70;5.17;;;;;;;1.14;100.00;98622.34;5021226;28;20231;-60
2022/01/19 00:37:23;;;;;;;8.87;6.53;;;;;;;1.15;100.00;98608.34;5022901;28;20231;-62
2022/01/19 00:39:51;;;;;;;6.63;6.03;;;;;;;0.97;100.00;98614.66;5018614;28;20625;-61
2022/01/19 00:42:19;;;;;;;6.83;6.23;;;;;;;0.72;100.00;98613.41;5018834;28;20228;-62
2022/01/19 00:44:49;;;;;;;6.90;5.53;;;;;;;0.87;100.00;98601.28;5019551;28;20391;-61
2022/01/19 00:47:17;;;;;;;4.50;4.13;;;;;;;0.74;100.00;98603.72;5021307;28;20720;-61
2022/01/19 00:49:45;;;;;;;4.93;4.53;;;;;;;0.67;100.00;98612.84;5019312;28;20291;-60
2022/01/19 00:52:14;;;;;;;4.23;3.83;;;;;;;0.64;100.00;98600.78;5019655;28;20636;-61
2022/01/19 00:54:43;;;;;;;3.37;3.17;;;;;;;0.57;100.00;98594.25;5021815;28;20212;-60
2022/01/19 00:57:11;;;;;;;3.47;3.20;;;;;;;0.47;100.00;98593.09;5016117;28;20628;-61
2022/01/19 00:59:39;;;;;;;3.93;3.63;;;;;;;0.50;100.00;98587.69;5019205;28;20204;-60
2022/01/19 01:02:08;;;;;;;3.93;3.57;;;;;;;0.57;100.00;98594.25;5018435;28;20193;-58
2022/01/19 01:04:37;;;;;;;3.30;3.10;;;;;;;0.48;100.00;98581.72;5023555;28;20319;-60
2022/01/19 01:07:05;;;;;;;3.33;3.10;;;;;;;0.47;100.00;98575.66;5019441;28;20276;-59
2022/01/19 01:09:33;;;;;;;4.17;3.37;;;;;;;0.42;100.00;98570.72;5019873;28;20192;-59
2022/01/19 01:12:09;;;;;;;3.70;3.40;;;;;;;0.39;100.00;98555.25;5017764;28;20221;-60
2022/01/19 01:20:15;;;;;;;4.20;3.80;;;;;;;0.44;100.00;98552.34;5011118;28;20235;-58
2022/01/19 01:22:44;;;;;;;5.77;3.93;;;;;;;0.32;100.00;98547.84;5020313;28;20204;-60
2022/01/19 01:25:12;;;;;;;3.20;3.00;;;;;;;0.25;100.00;98549.94;5018973;28;20255;-60
2022/01/19 01:27:40;;;;;;;4.10;3.80;;;;;;;0.22;100.00;98535.31;5018886;28;20205;-59
2022/01/19 01:30:10;;;;;;;3.30;3.10;;;;;;;0.35;100.00;98519.81;5019616;28;20287;-57
2022/01/19 01:32:39;;;;;;;5.53;4.00;;;;;;;0.31;100.00;98507.06;5015923;28;20231;-59
2022/01/19 01:35:10;;;;;;;5.23;3.93;;;;;;;0.28;100.00;98506.31;5015723;28;21073;-58
2022/01/19 01:37:38;;;;;;;4.30;4.10;;;;;;;0.49;100.00;98502.56;5018370;28;20203;-59
2022/01/19 01:40:08;;;;;;;4.07;3.70;;;;;;;0.49;100.00;98500.78;5017195;28;20203;-58
2022/01/19 01:42:37;;;;;;;5.37;4.10;;;;;;;0.58;100.00;98507.25;5012836;28;20211;-60
2022/01/19 01:45:11;;;;;;;4.43;4.13;;;;;;;0.47;100.00;98509.63;5020416;28;20220;-59
2022/01/19 01:47:45;;;;;;;4.23;3.90;;;;;;;0.35;100.00;98501.56;5015366;28;20201;-57
2022/01/19 01:53:26;;;;;;;4.80;4.40;;;;;;;0.62;100.00;98510.53;5015817;28;20224;-59
2022/01/19 01:56:00;;;;;;;4.70;4.30;;;;;;;0.69;100.00;98506.63;5015183;28;20295;-59
2022/01/19 01:58:31;;;;;;;4.20;3.83;;;;;;;0.48;100.00;98503.50;5017064;28;20805;-59
2022/01/19 02:01:00;;;;;;;5.00;3.87;;;;;;;0.54;100.00;98495.31;5016444;28;20204;-60
2022/01/19 02:03:37;;;;;;;5.07;4.47;;;;;;;0.44;100.00;98479.34;5017534;28;20239;-57
2022/01/19 02:09:11;;;;;;;5.40;4.80;;;;;;;0.22;100.00;98457.13;4945538;28;20738;-60
2022/01/19 02:23:11;;;;;;;5.17;4.67;;;;;;;0.37;100.00;98436.31;4955622;28;20852;-59
2022/01/19 02:25:43;;;;;;;5.07;4.67;;;;;;;0.23;100.00;98427.50;4957884;28;20221;-62
2022/01/19 02:31:33;;;;;;;5.60;5.10;;;;;;;0.21;100.00;98426.75;4957435;28;20421;-59
2022/01/19 02:42:26;;;;;;;6.40;5.17;;;;;;;0.16;100.00;98407.91;4960362;28;20391;-58
2022/01/19 02:50:27;;;;;;;5.30;4.73;;;;;;;0.03;100.00;98399.13;5020118;28;20262;-59
2022/01/19 02:52:57;;;;;;;5.23;4.30;;;;;;;0.10;100.00;98395.25;5020751;28;20250;-60
2022/01/19 02:55:25;;;;;;;5.57;4.97;;;;;;;0.07;100.00;98390.22;5023617;28;20807;-58
2022/01/19 02:57:54;;;;;;;5.00;4.70;;;;;;;0.11;100.00;98389.09;5023502;28;20287;-61
2022/01/19 03:08:45;;;;;;;4.40;4.03;;;;;;;-0.17;100.00;98382.88;5025916;28;20236;-60
2022/01/19 03:11:16;;;;;;;5.33;4.50;;;;;;;-0.18;100.00;98378.59;5022594;28;21575;-58
2022/01/19 03:13:45;;;;;;;4.67;4.27;;;;;;;-0.20;100.00;98383.03;5025144;28;20270;-58
2022/01/19 03:16:14;;;;;;;6.03;5.10;;;;;;;-0.23;100.00;98365.81;5020232;28;20307;-58
2022/01/19 03:18:42;;;;;;;5.90;4.83;;;;;;;-0.27;100.00;98360.84;5021892;28;20208;-60
2022/01/19 03:21:11;;;;;;;4.53;4.23;;;;;;;-0.30;100.00;98367.09;5023152;28;20246;-53
2022/01/19 03:23:40;;;;;;;4.83;4.43;;;;;;;-0.37;100.00;98363.97;5025199;28;20223;-57
2022/01/19 03:26:09;;;;;;;4.07;3.67;;;;;;;-0.40;100.00;98368.50;5015767;28;20272;-58
2022/01/19 03:28:37;;;;;;;4.80;4.50;;;;;;;-0.44;100.00;98360.03;5023122;28;20292;-60
2022/01/19 03:31:07;;;;;;;4.90;4.30;;;;;;;-0.48;100.00;98356.75;5019998;28;20285;-56
2022/01/19 03:33:35;;;;;;;5.03;4.63;;;;;;;-0.45;100.00;98355.75;5022311;28;20224;-58
2022/01/19 03:36:04;;;;;;;5.10;4.60;;;;;;;-0.49;100.00;98354.25;5020909;28;20753;-56
2022/01/19 03:38:32;;;;;;;4.67;4.27;;;;;;;-0.50;100.00;98356.00;5021053;28;20205;-60
2022/01/19 03:41:02;;;;;;;5.03;4.60;;;;;;;-0.51;100.00;98346.53;5016398;28;20304;-58
2022/01/19 03:43:30;;;;;;;5.33;4.70;;;;;;;-0.55;100.00;98350.22;5020808;28;20200;-58
2022/01/19 03:46:00;;;;;;;5.33;4.87;;;;;;;-0.61;100.00;98348.78;5022815;28;20229;-60
2022/01/19 03:48:42;;;;;;;4.80;4.43;;;;;;;-0.67;100.00;98341.31;5019734;28;20749;-57
2022/01/19 03:51:12;;;;;;;5.13;4.70;;;;;;;-0.65;100.00;98334.25;5021115;28;20229;-59
2022/01/19 03:53:40;;;;;;;7.70;5.30;;;;;;;-0.64;100.00;98335.13;5023288;28;20220;-58
2022/01/19 03:56:10;;;;;;;6.17;4.90;;;;;;;-0.65;100.00;98338.66;5017483;28;20705;-57
2022/01/19 03:58:39;;;;;;;8.37;4.97;;;;;;;-0.63;100.00;98329.81;5022120;28;20283;-60
2022/01/19 04:01:09;;;;;;;4.87;3.90;;;;;;;-0.60;100.00;98336.63;5017927;28;20291;-60
2022/01/19 04:06:54;;;;;;;5.33;4.67;;;;;;;-0.65;100.00;98317.81;4961492;28;20694;-59
2022/01/19 04:09:23;;;;;;;5.23;4.83;;;;;;;-0.53;100.00;98326.72;4960467;28;20547;-59
2022/01/19 04:11:53;;;;;;;5.23;4.83;;;;;;;-0.56;100.00;98321.69;4963813;28;20329;-59
2022/01/19 04:14:22;;;;;;;4.70;4.37;;;;;;;-0.56;100.00;98319.09;4964456;28;20241;-60
2022/01/19 04:16:51;;;;;;;4.83;4.40;;;;;;;-0.52;100.00;98317.97;4962806;28;20610;-61
2022/01/19 04:19:26;;;;;;;3.97;3.77;;;;;;;-0.46;100.00;98317.63;4961280;28;20206;-60
2022/01/19 04:21:55;;;;;;;5.27;4.77;;;;;;;-0.42;100.00;98321.75;4961416;28;20202;-57
2022/01/19 04:24:25;;;;;;;4.40;4.10;;;;;;;-0.30;100.00;98322.81;4958332;28;20198;-63
2022/01/19 04:29:43;;;;;;;5.00;4.60;;;;;;;-0.21;100.00;98318.81;4961655;28;20273;-60
2022/01/19 04:32:15;;;;;;;5.10;4.70;;;;;;;-0.10;100.00;98315.59;4963578;28;20711;-58
2022/01/19 04:34:45;;;;;;;4.93;4.37;;;;;;;-0.03;100.00;98315.19;4961376;28;20234;-55
2022/01/19 04:37:40;;;;;;;5.50;4.90;;;;;;;-0.28;100.00;98317.50;4978038;28;20204;-62
2022/01/19 04:54:32;;;;;;;5.80;5.30;;;;;;;-0.44;100.00;98307.97;5018549;28;20283;-58
2022/01/19 05:02:59;;;;;;;6.90;4.53;;;;;;;-0.41;100.00;98299.97;5006761;28;20258;-58
2022/01/19 05:05:31;;;;;;;5.63;5.23;;;;;;;-0.37;100.00;98298.06;5020913;28;20231;-57
2022/01/19 05:08:10;;;;;;;5.07;4.53;;;;;;;-0.26;100.00;98295.66;5021518;28;20610;-58
2022/01/19 05:13:27;;;;;;;4.83;4.53;;;;;;;-0.32;100.00;98285.59;5019753;28;20642;-54
2022/01/19 05:15:56;;;;;;;5.80;5.33;;;;;;;-0.31;100.00;98295.91;5019694;28;20235;-60
2022/01/19 05:18:25;;;;;;;5.00;4.60;;;;;;;-0.21;100.00;98292.78;5021917;28;20259;-60
2022/01/19 05:20:53;;;;;;;6.53;5.17;;;;;;;-0.39;100.00;98292.91;5022077;28;20200;-59
2022/01/19 05:23:21;;;;;;;4.80;4.40;;;;;;;-0.36;100.00;98297.94;5015471;28;20220;-57
2022/01/19 05:25:50;;;;;;;4.43;4.13;;;;;;;-0.16;100.00;98296.81;5016340;28;20228;-58
2022/01/19 05:28:23;;;;;;;5.20;4.90;;;;;;;-0.18;100.00;98293.44;5021242;28;20839;-59
2022/01/19 05:30:52;;;;;;;5.20;4.73;;;;;;;-0.15;100.00;98301.09;5017851;28;20212;-56
2022/01/19 05:33:22;;;;;;;5.37;4.87;;;;;;;-0.37;100.00;98280.66;5016993;28;20244;-59
2022/01/19 05:35:50;;;;;;;5.30;4.80;;;;;;;-0.27;100.00;98282.72;5019599;28;20729;-59
2022/01/19 05:38:19;;;;;;;5.80;4.93;;;;;;;-0.31;100.00;98290.72;5021228;28;20196;-59
2022/01/19 05:40:47;;;;;;;4.80;4.40;;;;;;;-0.47;100.00;98297.72;5016961;28;20208;-57
2022/01/19 05:43:15;;;;;;;4.77;4.23;;;;;;;-0.49;100.00;98274.38;5019956;28;20278;-58
2022/01/19 05:45:43;;;;;;;4.47;4.17;;;;;;;-0.35;100.00;98289.22;5021778;28;21853;-55
2022/01/19 05:48:12;;;;;;;6.47;4.37;;;;;;;-0.35;100.00;98296.19;5017316;28;20629;-57
2022/01/19 05:50:42;;;;;;;3.97;3.67;;;;;;;-0.09;100.00;98297.28;5017445;28;20216;-57
2022/01/19 05:53:10;;;;;;;4.83;4.43;;;;;;;-0.15;100.00;98297.66;5019880;28;20232;-57
2022/01/19 05:55:38;;;;;;;4.20;3.90;;;;;;;-0.37;100.00;98295.44;5016220;28;20633;-57
2022/01/19 05:58:07;;;;;;;4.53;4.23;;;;;;;-0.25;100.00;98296.50;5020720;28;20247;-56
2022/01/19 06:00:35;;;;;;;4.60;4.27;;;;;;;-0.21;100.00;98285.81;5014980;28;20213;-56
2022/01/19 06:03:04;;;;;;;3.83;3.53;;;;;;;-0.21;100.00;98278.00;5015813;28;20205;-57
2022/01/19 06:05:33;;;;;;;4.10;3.80;;;;;;;-0.15;100.00;98271.59;5021247;28;20223;-59
2022/01/19 06:08:17;;;;;;;4.43;4.13;;;;;;;-0.26;100.00;98264.41;5015714;28;20223;-60
2022/01/19 06:10:46;;;;;;;5.33;4.30;;;;;;;-0.51;100.00;98265.81;5019289;28;20676;-59
2022/01/19 06:13:16;;;;;;;4.73;4.43;;;;;;;-0.67;100.00;98257.19;5025396;28;20598;-60
2022/01/19 06:15:46;;;;;;;4.47;4.20;;;;;;;-0.80;100.00;98250.06;5022807;28;20255;-58
2022/01/19 06:18:15;;;;;;;4.00;3.80;;;;;;;-0.98;100.00;98243.28;5023828;28;20195;-60
2022/01/19 06:20:44;;;;;;;4.60;4.20;;;;;;;-1.10;100.00;98248.25;5021128;28;20250;-53
2022/01/19 06:23:13;;;;;;;5.07;4.57;;;;;;;-1.21;100.00;98245.38;5020240;28;20207;-59
2022/01/19 06:25:42;;;;;;;5.10;4.70;;;;;;;-1.56;100.00;98237.72;5021495;28;20708;-59
2022/01/19 06:28:10;;;;;;;5.57;4.63;;;;;;;-1.72;100.00;98237.69;5023708;28;20216;-57
2022/01/19 06:30:39;;;;;;;6.03;4.93;;;;;;;-1.90;100.00;98240.34;5022290;28;20204;-61
2022/01/19 06:33:07;;;;;;;6.00;4.87;;;;;;;-2.11;100.00;98222.34;5021436;28;20459;-61
2022/01/19 06:35:39;;;;;;;6.43;5.30;;;;;;;-2.10;100.00;98229.19;5019408;28;20250;-62
2022/01/19 06:38:08;;;;;;;5.20;4.80;;;;;;;-2.08;100.00;98219.59;5019588;28;20196;-60
2022/01/19 06:40:38;;;;;;;5.97;5.47;;;;;;;-2.34;100.00;98231.28;5022673;28;20212;-62
2022/01/19 06:43:06;;;;;;;7.07;6.47;;;;;;;-2.47;100.00;98216.34;5020433;28;20274;-60
2022/01/19 06:45:34;;;;;;;6.40;5.80;;;;;;;-2.51;100.00;98211.38;5022838;28;21010;-62
2022/01/19 06:48:02;;;;;;;6.43;5.87;;;;;;;-2.66;100.00;98218.16;5019677;28;20880;-60
2022/01/19 06:50:31;;;;;;;8.47;6.30;;;;;;;-2.67;100.00;98208.69;5024256;28;20232;-54
2022/01/19 06:53:00;;;;;;;6.30;5.70;;;;;;;-2.63;100.00;98207.66;5020943;28;20498;-61
2022/01/19 06:55:28;;;;;;;8.00;6.67;;;;;;;-2.74;100.00;98210.75;5017563;28;20497;-60
2022/01/19 06:57:58;;;;;;;7.90;6.13;;;;;;;-2.88;100.00;98200.19;5019607;28;20258;-60
2022/01/19 07:00:26;;;;;;;5.67;5.03;;;;;;;-2.82;100.00;98202.53;5015129;28;20220;-58
2022/01/19 07:02:54;;;;;;;5.80;5.30;;;;;;;-2.81;100.00;98196.41;5020928;28;20675;-59
2022/01/19 07:05:23;;;;;;;4.67;4.27;;;;;;;-2.82;100.00;98197.34;5021474;28;20883;-60
2022/01/19 07:07:56;;;;;;;4.93;4.47;;;;;;;-2.87;100.00;98194.09;5019009;28;20432;-60
2022/01/19 07:10:25;;;;;;;6.03;5.43;;;;;;;-3.03;100.00;98197.44;5021117;28;20220;-61
2022/01/19 07:12:53;;;;;;;5.83;4.80;;;;;;;-2.99;100.00;98177.41;5021529;28;21222;-60
2022/01/19 07:15:23;;;;;;;5.00;4.60;;;;;;;-2.93;100.00;98179.69;5016142;28;20498;-58
2022/01/19 07:17:52;;;;;;;5.20;4.70;;;;;;;-2.74;100.00;98182.22;5024124;28;20542;-58
2022/01/19 07:20:20;;;;;;;5.33;4.93;;;;;;;-2.81;100.00;98173.91;5014635;28;20209;-60
2022/01/19 07:22:49;;;;;;;7.73;6.10;;;;;;;-2.81;100.00;98178.25;5016902;28;20266;-58
2022/01/19 07:25:17;;;;;;;7.93;7.13;;;;;;;-2.94;100.00;98184.03;5021450;28;20541;-58
2022/01/19 07:27:46;;;;;;;6.83;6.00;;;;;;;-2.99;100.00;98175.63;5017662;28;21046;-59
2022/01/19 07:30:14;;;;;;;5.87;5.27;;;;;;;-3.02;100.00;98172.38;5023420;28;20662;-55
2022/01/19 07:32:48;;;;;;;6.17;5.00;;;;;;;-3.01;100.00;98156.72;5021497;28;21010;-56
2022/01/19 07:35:16;;;;;;;4.80;4.47;;;;;;;-2.92;100.00;98163.22;5021746;28;20580;-58
2022/01/19 07:37:45;;;;;;;5.50;5.00;;;;;;;-2.89;100.00;98165.66;5022692;28;20497;-56
2022/01/19 07:40:14;;;;;;;6.63;5.37;;;;;;;-2.84;100.00;98166.25;5023618;28;20200;-60
2022/01/19 07:42:43;;;;;;;5.63;5.23;;;;;;;-2.76;100.00;98151.16;5022092;28;20508;-58
2022/01/19 07:45:11;;;;;;;6.03;5.43;;;;;;;-2.56;100.00;98151.06;5018373;28;20290;-53
2022/01/19 07:47:40;;;;;;;4.87;4.47;;;;;;;-2.57;100.00;98147.66;5017085;28;20547;-56
2022/01/19 07:50:10;;;;;;;4.80;4.40;;;;;;;-2.51;100.00;98152.53;5020665;28;20506;-56
2022/01/19 07:52:39;;;;;;;9.87;5.70;;;;;;;-2.63;100.00;98146.19;5020079;28;20470;-57
2022/01/19 07:55:08;;;;;;;6.30;5.10;;;;;;;-2.65;100.00;98140.25;5020642;28;20518;-57
2022/01/19 07:57:37;;;;;;;5.07;4.60;;;;;;;-2.58;100.00;98138.19;5017781;28;20212;-58
2022/01/19 08:00:07;;;;;;;6.50;5.90;;;;;;;-2.48;100.00;98131.59;5016618;28;20460;-54
2022/01/19 08:02:35;;;;;;;7.23;5.50;;;;;;;-2.42;100.00;98124.41;5022210;28;20262;-58
2022/01/19 08:05:05;;;;;;;6.63;6.03;;;;;;;-2.40;100.00;98123.44;5020783;28;20498;-56
2022/01/19 08:07:35;;;;;;;6.37;5.83;;;;;;;-2.21;100.00;98117.25;5019881;28;20562;-55
2022/01/19 08:10:05;;;;;;;7.60;6.27;;;;;;;-2.25;100.00;98110.56;5020607;28;20981;-55
2022/01/19 08:12:33;;;;;;;9.00;5.87;;;;;;;-2.26;100.00;98109.75;5017319;28;20201;-56
2022/01/19 08:15:02;;;;;;;6.20;5.60;;;;;;;-2.20;100.00;98091.25;5020184;28;20525;-58
2022/01/19 08:17:30;;;;;;;8.87;5.83;;;;;;;-2.25;100.00;98087.19;5019627;28;20995;-56
2022/01/19 08:19:59;;;;;;;6.73;6.13;;;;;;;-2.09;100.00;98088.03;5021022;28;20262;-59
2022/01/19 08:22:27;;;;;;;7.37;6.70;;;;;;;-2.08;100.00;98081.97;5019629;28;20467;-55
2022/01/19 08:24:57;;;;;;;8.03;7.23;;;;;;;-1.91;100.00;98081.03;5019236;28;20471;-58
2022/01/19 08:27:25;;;;;;;7.27;6.57;;;;;;;-1.74;100.00;98068.88;5018773;28;20201;-52
2022/01/19 08:29:54;;;;;;;6.90;6.27;;;;;;;-1.63;100.00;98066.53;5016588;28;20905;-59
2022/01/19 08:32:22;;;;;;;7.47;5.87;;;;;;;-1.51;100.00;98070.19;5022007;28;20459;-60
2022/01/19 08:35:00;;;;;;;8.80;5.77;;;;;;;-1.14;100.00;98069.03;5018162;28;20501;-59
2022/01/19 08:37:28;;;;;;;6.60;5.80;;;;;;;-1.13;100.00;98068.09;5016780;28;20451;-60
2022/01/19 08:39:58;;;;;;;6.10;4.87;;;;;;;-0.96;100.00;98057.53;5016402;28;20204;-60
2022/01/19 08:42:28;;;;;;;6.73;4.83;;;;;;;-0.80;100.00;98048.84;5015119;28;20255;-58
2022/01/19 08:44:57;;;;;;;6.93;5.07;;;;;;;-0.64;100.00;98064.41;5018285;28;20587;-53
2022/01/19 08:47:25;;;;;;;5.63;4.83;;;;;;;-0.42;100.00;98058.72;5019190;28;20200;-59
2022/01/19 08:49:55;;;;;;;5.17;4.20;;;;;;;-0.20;100.00;98073.03;5020856;28;20212;-56
2022/01/19 08:52:23;;;;;;;5.77;5.20;;;;;;;-0.25;100.00;98075.09;5016633;28;20246;-58
2022/01/19 08:54:52;;;;;;;4.43;4.03;;;;;;;-0.10;100.00;98073.31;5015623;28;20311;-58
2022/01/19 08:57:23;;;;;;;4.43;4.10;;;;;;;-0.06;100.00;98075.66;5017998;28;20872;-60
2022/01/19 08:59:52;;;;;;;5.53;4.40;;;;;;;0.11;100.00;98074.59;5018253;28;20219;-57
2022/01/19 09:02:21;;;;;;;4.43;4.03;;;;;;;0.19;100.00;98073.28;5016134;28;20204;-57
2022/01/19 09:04:49;;;;;;;4.57;4.20;;;;;;;0.24;100.00;98076.44;5018295;28;20232;-58
2022/01/19 09:07:19;;;;;;;5.17;4.77;;;;;;;0.33;100.00;98077.63;5016194;28;20250;-57
2022/01/19 09:09:47;;;;;;;4.73;4.30;;;;;;;0.45;100.00;98076.00;5017115;28;20235;-57
2022/01/19 09:12:16;;;;;;;5.13;4.60;;;;;;;0.41;100.00;98073.59;5016093;28;20192;-54
2022/01/19 09:14:45;;;;;;;7.73;4.83;;;;;;;0.41;100.00;98057.09;5018806;28;20243;-58
2022/01/19 09:17:15;;;;;;;6.53;5.00;;;;;;;0.40;100.00;98053.69;5017353;28;20213;-57
2022/01/19 09:19:43;;;;;;;5.37;4.63;;;;;;;0.77;100.00;98057.44;5017951;28;20741;-54
2022/01/19 09:22:12;;;;;;;5.27;4.57;;;;;;;0.67;100.00;98052.81;5020095;28;20254;-57
2022/01/19 09:24:41;;;;;;;4.03;3.73;;;;;;;0.84;100.00;98059.53;5017576;28;20232;-55
2022/01/19 09:27:10;;;;;;;4.63;4.13;;;;;;;0.90;100.00;98047.00;5014315;28;20213;-54
2022/01/19 09:29:42;;;;;;;5.47;4.97;;;;;;;0.80;100.00;98052.84;5016816;28;20618;-59
2022/01/19 09:32:11;;;;;;;7.20;4.23;;;;;;;0.87;100.00;98050.69;5019492;28;20379;-56
2022/01/19 09:34:42;;;;;;;8.00;4.97;;;;;;;0.74;100.00;98042.81;5018651;28;21290;-59
2022/01/19 09:37:11;;;;;;;6.17;5.37;;;;;;;0.80;100.00;98036.38;5022239;28;20530;-54
2022/01/19 09:39:40;;;;;;;6.33;5.40;;;;;;;0.77;100.00;98028.75;5018961;28;20212;-55
2022/01/19 09:42:09;;;;;;;5.77;4.90;;;;;;;0.46;100.00;98021.13;5017094;28;20625;-54
2022/01/19 09:44:37;;;;;;;5.90;5.40;;;;;;;0.50;100.00;98013.97;5019306;28;20229;-57
2022/01/19 09:47:06;;;;;;;9.10;5.47;;;;;;;0.87;100.00;98011.53;5017280;28;20674;-56
2022/01/19 09:49:36;;;;;;;10.37;6.57;;;;;;;0.88;100.00;98009.75;5013529;28;20255;-57
2022/01/19 09:52:05;;;;;;;6.37;5.77;;;;;;;1.55;100.00;98011.31;5021431;28;20674;-57
2022/01/19 09:54:33;;;;;;;5.60;4.97;;;;;;;1.92;100.00;98003.53;5020418;28;20524;-60
2022/01/19 09:57:02;;;;;;;5.47;4.60;;;;;;;1.85;100.00;97999.69;5017364;28;20482;-59
2022/01/19 09:59:35;;;;;;;10.43;5.70;;;;;;;1.50;100.00;97998.56;5017606;28;20205;-57
2022/01/19 10:02:06;;;;;;;6.20;5.60;;;;;;;1.42;100.00;97991.28;5020107;28;20285;-58
2022/01/19 10:04:38;;;;;;;6.30;5.80;;;;;;;0.98;100.00;97993.38;5018233;28;20244;-59
2022/01/19 10:07:15;;;;;;;6.27;5.67;;;;;;;0.65;100.00;97986.88;5016795;28;20207;-55
2022/01/19 10:09:54;;;;;;;6.10;5.50;;;;;;;0.37;100.00;97999.09;5016274;28;20254;-57
2022/01/19 10:18:14;;;;;;;7.27;6.53;;;;;;;0.32;100.00;97995.13;5016040;28;20205;-60
2022/01/19 10:20:45;;;;;;;8.07;5.83;;;;;;;0.43;100.00;98003.09;5018079;28;20597;-57
2022/01/19 10:23:36;;;;;;;6.77;6.17;;;;;;;0.44;100.00;97994.31;5018781;28;20204;-60
2022/01/19 10:26:06;;;;;;;9.63;6.73;;;;;;;0.34;100.00;97998.47;5018792;28;20230;-56
2022/01/19 10:29:00;;;;;;;7.57;5.97;;;;;;;0.51;100.00;97985.16;5016435;28;20535;-58
2022/01/19 10:31:29;;;;;;;7.63;6.17;;;;;;;0.49;100.00;97976.59;5015152;28;20478;-59
2022/01/19 10:34:15;;;;;;;7.20;6.50;;;;;;;0.47;100.00;97975.88;5016346;28;20204;-58
2022/01/19 10:36:47;;;;;;;8.33;6.20;;;;;;;0.49;100.00;97960.97;5020311;28;20228;-59
2022/01/19 10:39:16;;;;;;;7.50;6.30;;;;;;;0.64;100.00;97951.28;5015600;28;20868;-58
2022/01/19 10:41:58;;;;;;;7.23;5.90;;;;;;;0.59;100.00;97955.97;5014443;28;22867;-60
2022/01/19 10:44:31;;;;;;;10.43;7.10;;;;;;;0.73;100.00;97947.25;5018654;28;20262;-59
2022/01/19 10:47:20;;;;;;;6.33;5.73;;;;;;;0.84;100.00;97938.69;5017615;28;20193;-59
2022/01/19 10:49:53;;;;;;;8.40;6.10;;;;;;;1.03;100.00;97938.28;5012983;28;20710;-60
2022/01/19 10:52:30;;;;;;;6.20;5.43;;;;;;;0.71;100.00;97936.06;5017481;28;20487;-57
2022/01/19 10:54:59;;;;;;;6.67;5.63;;;;;;;0.54;100.00;97932.81;5011834;28;20275;-57
2022/01/19 10:57:29;;;;;;;8.57;5.83;;;;;;;0.60;100.00;97931.56;5016497;28;20343;-61
2022/01/19 11:00:14;;;;;;;7.13;6.23;;;;;;;0.59;100.00;97921.25;5019595;28;20283;-59
2022/01/19 11:02:44;;;;;;;7.93;6.33;;;;;;;0.48;100.00;97917.56;5021932;28;20243;-57
2022/01/19 11:05:12;;;;;;;6.70;6.07;;;;;;;0.30;100.00;97905.78;5017712;28;20329;-56
2022/01/19 11:07:43;;;;;;;8.20;6.10;;;;;;;0.45;100.00;97901.31;5023676;28;20575;-57
2022/01/19 11:10:13;;;;;;;9.80;6.27;;;;;;;0.43;100.00;97888.38;5021627;28;20196;-54
2022/01/19 11:12:46;;;;;;;7.43;6.53;;;;;;;0.65;100.00;97886.94;5024139;28;20224;-58
2022/01/19 11:15:19;;;;;;;8.60;6.90;;;;;;;0.79;100.00;97883.38;5020310;28;20726;-59
2022/01/19 11:17:48;;;;;;;8.37;7.13;;;;;;;0.60;100.00;97876.78;5021675;28;20224;-59
2022/01/19 11:20:20;;;;;;;10.10;7.50;;;;;;;0.59;100.00;97876.91;5019156;28;20203;-58
2022/01/19 11:23:01;;;;;;;12.03;8.77;;;;;;;0.35;100.00;97875.81;5017469;28;20292;-57
2022/01/19 11:25:35;;;;;;;10.80;8.23;;;;;;;0.50;100.00;97889.63;5018953;28;20692;-58
2022/01/19 11:28:12;;;;;;;11.67;7.77;;;;;;;0.41;100.00;97885.88;5015063;28;20463;-59
2022/01/19 11:30:47;;;;;;;10.93;8.20;;;;;;;0.38;100.00;97885.22;5015962;28;20501;-60
2022/01/19 11:33:23;;;;;;;12.70;8.77;;;;;;;-0.06;100.00;97875.03;5015697;28;20219;-58
2022/01/19 11:35:54;;;;;;;11.43;8.07;;;;;;;-0.21;100.00;97873.41;5018151;28;20220;-61
2022/01/19 11:38:33;;;;;;;9.40;7.83;;;;;;;-0.51;100.00;97867.47;5021942;28;20232;-59
2022/01/19 11:41:03;;;;;;;10.00;8.23;;;;;;;-0.67;100.00;97864.16;5023051;28;20242;-57
2022/01/19 11:43:32;;;;;;;9.47;8.67;;;;;;;-0.74;100.00;97868.91;5019189;28;20458;-57
2022/01/19 11:46:03;;;;;;;9.10;7.87;;;;;;;-0.66;100.00;97866.66;5018750;28;20239;-59
2022/01/19 11:48:35;;;;;;;9.57;8.30;;;;;;;-0.51;100.00;97866.66;5019757;28;20637;-60
2022/01/19 11:51:24;;;;;;;8.93;8.10;;;;;;;-0.50;100.00;97855.31;5020708;28;20225;-58
2022/01/19 11:54:05;;;;;;;9.07;7.47;;;;;;;-0.52;100.00;97849.34;5020312;28;20662;-61
2022/01/19 11:56:34;;;;;;;8.40;7.63;;;;;;;-0.45;100.00;97846.25;5018498;28;20483;-62
2022/01/19 11:59:06;;;;;;;10.53;9.43;;;;;;;-0.48;100.00;97843.00;5018511;28;20250;-60
2022/01/19 12:01:34;;;;;;;10.13;9.13;;;;;;;-0.60;100.00;97835.03;5021055;28;20231;-61
2022/01/19 12:04:16;;;;;;;10.40;9.13;;;;;;;-0.56;100.00;97832.25;5021183;28;20995;-59
2022/01/19 12:06:46;;;;;;;10.37;9.23;;;;;;;-0.56;100.00;97817.47;5018785;28;20458;-60
2022/01/19 12:09:17;;;;;;;9.63;8.73;;;;;;;-0.69;100.00;97816.59;5016771;28;20458;-59
2022/01/19 12:11:50;;;;;;;15.43;10.17;;;;;;;-0.75;100.00;97816.03;5019165;28;20262;-55
2022/01/19 12:14:21;;;;;;;11.53;9.30;;;;;;;-0.67;100.00;97818.13;5021956;28;20201;-60
2022/01/19 12:17:01;;;;;;;12.80;10.97;;;;;;;-0.59;100.00;97805.47;5016856;28;20593;-59
2022/01/19 12:19:31;;;;;;;14.63;11.10;;;;;;;-0.81;100.00;97798.19;5016395;28;20542;-60
2022/01/19 12:22:12;;;;;;;13.47;10.57;;;;;;;-0.76;100.00;97793.56;5022697;28;20200;-56
2022/01/19 12:24:44;;;;;;;14.67;10.60;;;;;;;-0.75;100.00;97786.56;5018187;28;20475;-60
2022/01/19 12:27:28;;;;;;;15.13;12.03;;;;;;;-0.54;100.00;97778.34;5022340;28;20203;-59
2022/01/19 12:30:18;;;;;;;12.80;10.87;;;;;;;-0.55;100.00;97771.47;5018689;28;20213;-62
2022/01/19 12:32:51;;;;;;;16.07;11.93;;;;;;;-0.77;100.00;97767.63;5009429;28;20231;-61
2022/01/19 12:35:27;;;;;;;14.03;11.67;;;;;;;-0.90;100.00;97773.63;5019277;28;20256;-57
2022/01/19 12:37:57;;;;;;;15.37;10.97;;;;;;;-0.76;100.00;97777.09;5016202;28;20254;-59
2022/01/19 12:40:35;;;;;;;14.40;11.00;;;;;;;-0.76;100.00;97769.28;5016786;28;20597;-59
2022/01/19 12:43:06;;;;;;;16.10;11.37;;;;;;;-0.61;100.00;97759.66;5017385;28;20228;-57
2022/01/19 12:45:36;;;;;;;16.23;12.50;;;;;;;-0.52;100.00;97759.06;5017353;28;20486;-59
2022/01/19 12:48:06;;;;;;;15.10;10.80;;;;;;;-0.52;100.00;97760.84;5017029;28;20216;-57
2022/01/19 12:50:40;;;;;;;12.93;11.17;;;;;;;-0.49;100.00;97755.44;5017255;28;20205;-55
2022/01/19 12:53:18;;;;;;;16.10;11.47;;;;;;;-0.50;100.00;97748.56;5018986;28;20261;-58
2022/01/19 12:55:49;;;;;;;14.10;10.60;;;;;;;-0.48;100.00;97736.28;5017280;28;20321;-59
2022/01/19 12:58:21;;;;;;;16.57;10.47;;;;;;;-0.47;100.00;97730.13;5021536;28;20227;-60
2022/01/19 13:00:52;;;;;;;14.13;12.63;;;;;;;-0.37;100.00;97727.75;5019307;28;20217;-60
2022/01/19 13:03:24;;;;;;;13.13;11.43;;;;;;;-0.34;100.00;97724.94;5016055;28;20295;-58
2022/01/19 13:05:57;;;;;;;15.70;11.37;;;;;;;-0.46;100.00;97718.78;5019781;28;20475;-57